createdAt,value
2023-06-02T00:01:51.441Z,98681.00
2023-06-02T00:07:04.901Z,98679.77
2023-06-02T00:12:13.382Z,98677.26
2023-06-02T00:17:21.378Z,98677.60
2023-06-02T00:22:31.006Z,98676.58
2023-06-02T00:27:38.488Z,98681.83
2023-06-02T00:32:46.061Z,98682.57
2023-06-02T00:37:54.478Z,98684.07
2023-06-02T00:43:01.893Z,98683.82
2023-06-02T00:48:10.336Z,98681.86
2023-06-02T00:53:18.215Z,98684.23
2023-06-02T00:58:26.545Z,98678.30
2023-06-02T01:03:34.265Z,98677.71
2023-06-02T01:08:43.688Z,98684.36
2023-06-02T01:13:52.123Z,98688.06
2023-06-02T01:19:00.954Z,98685.23
2023-06-02T01:24:10.822Z,98683.13
2023-06-02T01:29:18.411Z,98679.30
2023-06-02T01:34:32.821Z,98674.89
2023-06-02T01:39:42.492Z,98673.73
2023-06-02T01:44:51.616Z,98677.29
2023-06-02T01:49:59.549Z,98673.48
2023-06-02T01:59:58.651Z,98690.15
2023-06-02T02:05:06.808Z,98692.27
2023-06-02T02:10:15.639Z,98687.73
2023-06-02T02:15:23.292Z,98688.39
2023-06-02T02:20:31.272Z,98685.67
2023-06-02T02:25:38.713Z,98696.31
2023-06-02T02:30:47.827Z,98698.14
2023-06-02T02:35:56.593Z,98698.73
2023-06-02T02:41:05.683Z,98694.73
2023-06-02T02:46:13.800Z,98703.48
2023-06-02T02:51:21.521Z,98709.45
2023-06-02T02:56:30.015Z,98711.24
2023-06-02T03:01:41.881Z,98711.09
2023-06-02T03:06:50.628Z,98719.14
2023-06-02T03:11:59.060Z,98718.85
2023-06-02T03:17:07.861Z,98724.89
2023-06-02T03:22:15.563Z,98725.79
2023-06-02T03:27:22.910Z,98733.42
2023-06-02T03:32:30.905Z,98736.44
2023-06-02T03:37:38.502Z,98737.78
2023-06-02T03:42:46.056Z,98746.48
2023-06-02T03:47:53.484Z,98753.74
2023-06-02T03:53:01.023Z,98762.16
2023-06-02T03:58:08.576Z,98764.67
2023-06-02T04:03:17.097Z,98769.07
2023-06-02T04:08:24.597Z,98778.59
2023-06-02T04:13:32.604Z,98778.50
2023-06-02T04:18:42.395Z,98787.77
2023-06-02T04:23:49.785Z,98798.72
2023-06-02T04:28:57.097Z,98799.61
2023-06-02T04:34:04.468Z,98794.20
2023-06-02T04:39:27.452Z,98794.73
2023-06-02T04:44:35.904Z,98796.93
2023-06-02T04:49:43.248Z,98800.80
2023-06-02T04:54:51.280Z,98798.23
2023-06-02T04:59:58.985Z,98800.46
2023-06-02T05:05:07.470Z,98800.64
2023-06-02T05:10:15.439Z,98805.96
2023-06-02T05:15:24.118Z,98803.17
2023-06-02T05:20:32.354Z,98805.41
2023-06-02T05:25:40.106Z,98805.61
2023-06-02T05:30:47.535Z,98808.14
2023-06-02T05:35:55.118Z,98814.20
2023-06-02T05:41:02.859Z,98820.20
2023-06-02T05:46:10.714Z,98816.50
2023-06-02T05:51:18.577Z,98818.86
2023-06-02T05:56:27.660Z,98823.09
2023-06-02T06:01:35.016Z,98824.27
2023-06-02T06:06:42.324Z,98825.36
2023-06-02T06:11:50.042Z,98832.84
2023-06-02T06:16:57.659Z,98832.12
2023-06-02T06:22:05.813Z,98840.64
2023-06-02T06:27:13.849Z,98835.05
2023-06-02T06:32:21.814Z,98838.55
2023-06-02T06:37:30.345Z,98845.98
2023-06-02T06:42:37.850Z,98851.02
2023-06-02T06:47:45.613Z,98854.55
2023-06-02T06:52:53.198Z,98859.39
2023-06-02T06:58:00.906Z,98864.15
2023-06-02T07:03:08.980Z,98862.02
2023-06-02T07:08:16.602Z,98860.05
2023-06-02T07:13:24.317Z,98866.02
2023-06-02T07:18:31.679Z,98866.98
2023-06-02T07:23:39.948Z,98869.24
2023-06-02T07:28:47.397Z,98868.30
2023-06-02T07:33:55.480Z,98870.65
2023-06-02T07:39:03.132Z,98873.80
2023-06-02T07:44:11.242Z,98872.60
2023-06-02T07:49:18.601Z,98874.61
2023-06-02T07:54:26.166Z,98877.14
2023-06-02T07:59:33.794Z,98872.50
2023-06-02T08:04:41.380Z,98879.84
2023-06-02T08:09:49.204Z,98883.18
2023-06-02T08:14:56.878Z,98877.83
2023-06-02T08:20:05.597Z,98873.67
2023-06-02T08:25:13.679Z,98872.76
2023-06-02T08:30:22.073Z,98869.60
2023-06-02T08:35:29.750Z,98879.27
2023-06-02T08:40:39.696Z,98874.68
2023-06-02T08:45:49.357Z,98873.27
2023-06-02T08:56:34.796Z,98876.21
2023-06-02T09:01:45.495Z,98876.30
2023-06-02T09:07:13.208Z,98870.66
2023-06-02T09:12:21.592Z,98867.78
2023-06-02T09:17:31.524Z,98873.07
2023-06-02T09:22:42.753Z,98873.64
2023-06-02T09:27:55.919Z,98868.29
2023-06-02T09:33:08.087Z,98871.95
2023-06-02T09:38:16.943Z,98870.92
2023-06-02T09:43:32.818Z,98873.50
2023-06-02T09:48:41.004Z,98871.05
2023-06-02T09:53:51.395Z,98874.16
2023-06-02T09:58:59.079Z,98875.46
2023-06-02T10:04:08.031Z,98875.95
2023-06-02T10:09:41.473Z,98878.67
2023-06-02T10:15:02.194Z,98879.80
2023-06-02T10:20:30.921Z,98878.45
2023-06-02T10:25:57.019Z,98879.92
2023-06-02T10:31:13.745Z,98882.39
2023-06-02T10:36:21.154Z,98887.45
2023-06-02T10:41:59.135Z,98889.51
2023-06-02T10:47:41.534Z,98892.79
2023-06-02T10:53:11.902Z,98891.64
2023-06-02T10:58:20.796Z,98898.50
2023-06-02T11:03:34.920Z,98901.32
2023-06-02T11:08:43.024Z,98905.61
2023-06-02T11:14:03.338Z,98907.23
2023-06-02T11:19:10.853Z,98902.98
2023-06-02T11:24:25.798Z,98900.64
2023-06-02T11:29:33.123Z,98896.71
2023-06-02T11:34:41.114Z,98897.92
2023-06-02T11:39:56.665Z,98901.97
2023-06-02T11:45:04.041Z,98904.80
2023-06-02T11:50:16.599Z,98904.00
2023-06-02T11:55:28.322Z,98906.29
2023-06-02T12:00:36.609Z,98905.35
2023-06-02T12:05:46.161Z,98912.45
2023-06-02T12:10:57.305Z,98912.23
2023-06-02T12:16:25.945Z,98918.54
2023-06-02T12:21:34.534Z,98914.84
2023-06-02T12:26:46.786Z,98912.70
2023-06-02T12:32:00.877Z,98910.95
2023-06-02T12:37:09.497Z,98913.77
2023-06-02T12:42:19.600Z,98914.52
2023-06-02T12:47:29.435Z,98916.02
2023-06-02T12:52:37.651Z,98910.27
2023-06-02T12:57:46.324Z,98909.42
2023-06-02T13:02:53.897Z,98913.00
2023-06-02T13:08:02.339Z,98909.80
2023-06-02T13:13:10.248Z,98916.23
2023-06-02T13:18:19.162Z,98915.48
2023-06-02T13:23:27.732Z,98916.58
2023-06-02T13:28:37.390Z,98918.58
2023-06-02T13:33:45.204Z,98918.94
2023-06-02T13:38:53.127Z,98929.27
2023-06-02T13:44:01.179Z,98943.48
2023-06-02T13:49:09.289Z,98952.63
2023-06-02T13:54:18.435Z,98959.77
2023-06-02T13:59:25.806Z,98962.36
2023-06-02T14:04:33.621Z,98957.28
2023-06-02T14:09:42.070Z,98960.94
2023-06-02T14:14:49.353Z,98980.63
2023-06-02T14:19:56.641Z,98981.86
2023-06-02T14:25:05.049Z,98987.06
2023-06-02T14:30:15.306Z,98996.81
2023-06-02T14:35:23.170Z,99006.87
2023-06-02T14:40:31.732Z,99003.39
2023-06-02T14:45:40.349Z,99016.91
2023-06-02T14:50:47.944Z,99023.65
2023-06-02T14:55:55.948Z,99024.08
2023-06-02T15:01:04.335Z,99028.52
2023-06-02T15:06:11.954Z,99039.77
2023-06-02T15:11:19.477Z,99045.55
2023-06-02T15:16:27.237Z,99050.60
2023-06-02T15:21:35.156Z,99057.12
2023-06-02T15:26:42.865Z,99059.80
2023-06-02T15:31:50.813Z,99052.80
2023-06-02T15:36:58.284Z,99054.17
2023-06-02T15:42:06.524Z,99062.73
2023-06-02T15:47:14.331Z,99071.69
2023-06-02T15:52:22.233Z,99075.58
2023-06-02T15:57:29.812Z,99074.20
2023-06-02T16:02:37.563Z,99074.22
2023-06-02T16:07:45.891Z,99076.60
2023-06-02T16:12:57.585Z,99085.64
2023-06-02T16:18:05.534Z,99085.30
2023-06-02T16:23:13.314Z,99091.66
2023-06-02T16:28:21.272Z,99101.42
2023-06-02T16:33:28.946Z,99095.78
2023-06-02T16:38:38.911Z,99103.75
2023-06-02T16:43:46.731Z,99111.91
2023-06-02T16:48:54.310Z,99122.45
2023-06-02T16:54:01.986Z,99126.23
2023-06-02T16:59:09.885Z,99127.05
2023-06-02T17:04:18.188Z,99134.71
2023-06-02T17:09:25.981Z,99136.91
2023-06-02T17:14:33.672Z,99141.73
2023-06-02T17:19:41.426Z,99144.09
2023-06-02T17:24:50.083Z,99151.92
2023-06-02T17:29:57.574Z,99157.53
2023-06-02T17:35:06.150Z,99162.98
2023-06-02T17:40:15.041Z,99182.90
2023-06-02T17:45:22.334Z,99190.06
2023-06-02T17:50:30.049Z,99194.23
2023-06-02T17:55:37.878Z,99208.33
2023-06-02T18:00:45.438Z,99226.80
2023-06-02T18:05:53.115Z,99231.04
2023-06-02T18:11:00.379Z,99242.92
2023-06-02T18:16:08.618Z,99248.23
2023-06-02T18:21:16.113Z,99257.95
2023-06-02T18:26:23.845Z,99261.56
2023-06-02T18:31:31.420Z,99267.09
2023-06-02T18:36:39.059Z,99266.70
2023-06-02T18:41:47.943Z,99276.86
2023-06-02T18:46:55.900Z,99291.71
2023-06-02T18:52:03.625Z,99296.55
2023-06-02T18:57:13.953Z,99306.13
2023-06-02T19:02:21.666Z,99315.65
2023-06-02T19:07:29.935Z,99324.76
2023-06-02T19:12:37.246Z,99330.81
2023-06-02T19:17:44.474Z,99337.57
2023-06-02T19:22:52.701Z,99345.91
2023-06-02T19:28:00.184Z,99352.65
2023-06-02T19:33:07.476Z,99353.06
2023-06-02T19:38:14.893Z,99359.13
2023-06-02T19:43:22.409Z,99359.13
2023-06-02T19:48:30.117Z,99361.83
2023-06-02T19:53:37.587Z,99376.22
2023-06-02T19:58:45.001Z,99382.45
2023-06-02T20:03:52.827Z,99386.55
2023-06-02T20:09:00.724Z,99394.79
2023-06-02T20:18:06.817Z,99403.65
2023-06-02T20:23:14.001Z,99402.27
2023-06-02T20:28:21.153Z,99412.20
2023-06-02T20:33:28.490Z,99417.92
2023-06-02T20:38:35.876Z,99419.47
2023-06-02T20:43:43.223Z,99421.89
2023-06-02T20:48:50.844Z,99421.08
2023-06-02T20:53:58.175Z,99427.48
2023-06-02T20:59:05.381Z,99435.96
2023-06-02T21:04:12.848Z,99442.38
2023-06-02T21:09:20.339Z,99437.95
2023-06-02T21:14:27.637Z,99435.84
2023-06-02T21:19:35.165Z,99438.00
2023-06-02T21:24:42.422Z,99438.72
2023-06-02T21:29:50.020Z,99441.92
2023-06-02T21:34:57.433Z,99443.14
2023-06-02T21:40:05.644Z,99441.00
2023-06-02T21:45:14.591Z,99436.52
2023-06-02T21:50:22.243Z,99428.54
2023-06-02T21:55:29.680Z,99430.77
2023-06-02T22:00:36.923Z,99432.91
2023-06-02T22:05:44.175Z,99431.55
2023-06-02T22:10:51.780Z,99426.90
2023-06-02T22:15:59.068Z,99430.19
2023-06-02T22:21:07.112Z,99434.02
2023-06-02T22:26:14.478Z,99433.63
2023-06-02T22:31:21.760Z,99435.64
2023-06-02T22:36:29.080Z,99433.67
2023-06-02T22:41:36.422Z,99435.95
2023-06-02T22:46:43.693Z,99434.45
2023-06-02T22:51:51.245Z,99439.13
2023-06-02T22:56:58.677Z,99438.65
2023-06-02T23:02:06.466Z,99438.77
2023-06-02T23:07:13.666Z,99434.27
2023-06-02T23:12:21.064Z,99432.65
2023-06-02T23:17:28.527Z,99432.05
2023-06-02T23:22:35.822Z,99440.59
2023-06-02T23:27:43.590Z,99444.46
2023-06-02T23:32:50.825Z,99449.08
2023-06-02T23:37:58.211Z,99453.64
2023-06-02T23:43:07.320Z,99456.61
2023-06-02T23:48:14.932Z,99456.24
2023-06-02T23:53:22.526Z,99456.23
2023-06-02T23:58:29.847Z,99459.80
